Juniata, Nebraska
Current Conditions -  °F | °C
As of 6:53 AM on Thursday 30 Oct 2014 (Local Time) from KHSI Reporting Station
Clear Clear  
Wind Chill: 36°   Ceiling: Unl
Heat Index: 42°   Visibility: 10mi
Dew Point: 31°   Wind: 12mph
Humidity: 65%   Direction: 310°NW
Pressure: 30.1"   Gusts: NA
Location:  40.59°N, 98.51°W
Report Text: KHSI 301153Z AUTO 31010KT 10SM CLR 06/M01 A3010 RMK AO2 SLP195 T00561006 10083 20033 53026
Loading
Personal Weather Stations






























Interactive Weather Map New forecast layout! Learn more

10-Day Weather Forecast

Advertisements
Track Severe Weather on mobile